EST,Max TemperatureF,Mean TemperatureF,Min TemperatureF,Max Dew PointF,MeanDew PointF,Min DewpointF,Max Humidity, Mean Humidity, Min Humidity, Max Sea Level PressureIn, Mean Sea Level PressureIn, Min Sea Level PressureIn, Max VisibilityMiles, Mean VisibilityMiles, Min VisibilityMiles, Max Wind SpeedMPH, Mean Wind SpeedMPH, Max Gust SpeedMPH,PrecipitationIn, CloudCover, Events, WindDirDegrees
2012-11-1,62,50,39,28,23,14,65,37,15,30.00,29.95,29.90,10,10,10,15,8,22,0.00,0,,286
2012-11-2,77,60,42,45,38,27,70,44,29,30.03,29.99,29.93,10,10,10,17,7,26,0.00,0,,280
2012-11-3,80,61,42,54,45,36,87,57,25,30.14,30.07,30.04,10,10,10,12,3,16,0.00,0,,255
2012-11-4,73,63,53,57,52,41,82,66,50,30.05,30.03,30.00,10,10,10,17,7,25,0.00,1,,279
2012-11-5,64,53,42,45,40,34,81,61,34,30.12,30.05,30.00,10,10,10,10,5,,0.00,0,,346
2012-11-6,53,48,44,48,41,36,94,74,54,30.05,30.00,29.95,10,8,3,13,4,23,0.00,7,,79
2012-11-7,51,46,42,45,41,36,93,81,71,30.05,29.97,29.91,10,9,4,10,2,,0.00,4,,310
2012-11-8,64,52,39,41,36,30,93,62,28,30.20,30.14,30.05,10,10,10,9,6,,0.00,0,,298
2012-11-9,71,53,35,41,35,27,93,59,19,30.33,30.26,30.20,10,10,10,5,1,,0.00,0,,290
2012-11-10,71,54,37,45,37,32,93,53,23,30.39,30.36,30.31,10,10,10,6,0,,0.00,0,,199
2012-11-11,69,54,39,54,45,36,93,70,49,30.49,30.40,30.37,10,10,4,8,1,,0.00,2,,120
2012-11-12,73,63,53,63,57,52,94,86,64,30.37,30.29,30.22,10,8,2,9,4,,0.00,5,,215
2012-11-13,62,52,41,52,43,36,94,73,52,30.36,30.29,30.24,10,10,10,10,6,,0.00,3,,6
2012-11-14,53,45,37,41,35,32,93,65,44,30.45,30.37,30.31,10,8,2,12,5,22,0.00,5,,59
2012-11-15,51,46,41,45,41,39,93,87,71,30.35,30.30,30.25,10,6,2,8,4,,0.00,6,,46
2012-11-16,60,48,37,43,38,34,100,74,39,30.37,30.32,30.28,10,8,2,6,1,,0.00,0,,46
2012-11-17,60,48,37,36,32,27,93,57,29,30.46,30.41,30.37,10,10,3,15,5,21,0.00,0,,56
2012-11-18,62,53,44,45,38,28,76,57,46,30.43,30.39,30.34,10,10,2,13,6,24,0.00,3,,55
2012-11-19,64,57,50,52,47,41,88,72,59,30.35,30.29,30.23,10,10,5,9,4,16,0.00,7,,27
2012-11-20,69,58,48,52,45,37,93,62,31,30.23,30.15,30.09,10,10,7,8,2,,0.00,2,,302
2012-11-21,69,56,44,46,42,37,87,63,33,30.20,30.16,30.12,10,10,10,7,3,,0.00,1,,360
2012-11-22,68,54,41,43,38,32,93,64,28,30.32,30.24,30.20,10,10,7,5,1,,0.00,0,,254
2012-11-23,73,58,42,52,42,36,81,57,33,30.22,30.14,30.05,10,10,10,18,7,25,0.00,1,,284
2012-11-24,53,45,35,36,27,19,81,51,26,30.17,30.12,30.09,10,10,10,15,8,21,0.00,0,,303
2012-11-25,60,46,32,28,21,9,81,49,13,30.22,30.16,30.10,10,10,10,9,4,,0.00,0,,264
2012-11-26,69,52,35,34,25,18,81,39,15,30.25,30.19,30.15,10,10,10,8,4,,0.00,0,,259
2012-11-27,57,52,44,54,47,27,94,83,33,30.24,30.18,30.12,10,8,1,9,4,,0.00,6,,256
2012-11-28,60,48,37,45,40,32,93,71,39,30.39,30.33,30.23,10,10,10,9,4,,0.00,3,,323
2012-11-29,60,46,33,43,34,32,93,68,34,30.48,30.41,30.37,10,10,4,5,1,,0.00,1,,65
2012-11-30,64,50,35,46,40,32,87,71,49,30.43,30.37,30.32,10,10,10,5,0,,0.00,7,,26